Time;durP1;ratioP1;P1;durP2;ratioP2;P2;SDS_P1;SDS_P2;PMS_P1;PMS_P2;Temp;Humidity;BMP_temperature;BMP_pressure;BME280_temperature;BME280_humidity;BME280_pressure;Samples;Min_cycle;Max_cycle;Signal;HPM_P1;HPM_P2
2022/06/27 00:00:28;;;;;;;10.70;3.80;;;20.90;58.70;;;;;;5021176;28;20967;-89
2022/06/27 00:02:59;;;;;;;12.97;3.70;;;20.90;58.60;;;;;;5026757;28;20208;-89
2022/06/27 00:05:27;;;;;;;10.63;3.67;;;20.90;58.80;;;;;;5024466;28;20252;-89
2022/06/27 00:07:54;;;;;;;10.63;4.00;;;20.80;58.70;;;;;;5017825;28;20234;-90
2022/06/27 00:10:23;;;;;;;9.23;3.50;;;20.80;58.80;;;;;;5019437;28;20205;-89
2022/06/27 00:12:51;;;;;;;11.70;4.17;;;20.80;59.00;;;;;;5028495;28;20532;-89
2022/06/27 00:15:19;;;;;;;11.13;3.87;;;20.70;59.10;;;;;;5026850;28;20282;-91
2022/06/27 00:17:46;;;;;;;11.83;4.33;;;20.70;59.30;;;;;;5029939;28;20354;-89
2022/06/27 00:20:13;;;;;;;11.50;4.10;;;20.70;59.30;;;;;;5029638;28;20283;-89
2022/06/27 00:22:42;;;;;;;10.60;3.87;;;20.60;59.30;;;;;;5030013;28;20743;-89
2022/06/27 00:25:11;;;;;;;17.17;5.80;;;20.60;59.60;;;;;;5023604;28;20625;-89
2022/06/27 00:27:38;;;;;;;10.33;3.80;;;20.60;59.60;;;;;;5029906;28;20376;-89
2022/06/27 00:30:06;;;;;;;8.00;3.60;;;20.50;59.60;;;;;;5027942;28;20204;-89
2022/06/27 00:32:33;;;;;;;10.97;4.17;;;20.60;59.70;;;;;;5024392;28;20660;-89
2022/06/27 00:35:01;;;;;;;9.70;3.73;;;20.50;59.80;;;;;;5027821;28;20250;-89
2022/06/27 00:37:28;;;;;;;9.83;3.23;;;20.50;60.00;;;;;;5025720;28;20762;-88
2022/06/27 00:39:57;;;;;;;13.80;4.60;;;20.40;60.00;;;;;;5008442;28;20228;-89
2022/06/27 00:42:24;;;;;;;13.93;4.87;;;20.40;60.30;;;;;;5009627;28;20268;-89
2022/06/27 00:44:51;;;;;;;12.27;4.17;;;20.40;60.20;;;;;;5024899;28;20865;-89
2022/06/27 00:47:20;;;;;;;12.90;5.13;;;20.40;60.40;;;;;;5026218;28;20278;-90
2022/06/27 00:49:47;;;;;;;12.37;4.37;;;20.40;60.50;;;;;;5027851;28;20255;-90
2022/06/27 00:52:15;;;;;;;11.07;3.97;;;20.30;60.50;;;;;;5027652;28;20204;-91
2022/06/27 00:54:44;;;;;;;10.73;4.07;;;20.30;60.70;;;;;;5026459;28;20251;-89
2022/06/27 00:57:14;;;;;;;11.17;3.80;;;20.30;60.80;;;;;;5026784;28;20208;-89
2022/06/27 00:59:42;;;;;;;9.73;3.80;;;20.30;61.10;;;;;;5025676;28;20733;-89
2022/06/27 01:02:09;;;;;;;13.83;5.27;;;20.30;61.20;;;;;;5026142;28;20204;-90
2022/06/27 01:04:38;;;;;;;14.93;4.37;;;20.30;61.30;;;;;;5026213;28;20224;-89
2022/06/27 01:07:07;;;;;;;14.10;4.93;;;20.30;61.50;;;;;;5016560;28;20236;-89
2022/06/27 01:09:35;;;;;;;10.37;3.57;;;20.30;61.70;;;;;;5022516;28;20201;-90
2022/06/27 01:12:03;;;;;;;7.33;2.97;;;20.30;61.50;;;;;;5024046;28;20212;-89
2022/06/27 01:14:33;;;;;;;9.27;3.50;;;20.30;61.70;;;;;;5025889;28;20236;-88
2022/06/27 01:17:00;;;;;;;8.40;3.27;;;20.30;62.10;;;;;;5024839;28;20654;-89
2022/06/27 01:19:27;;;;;;;6.77;3.07;;;20.30;61.80;;;;;;5028105;28;20320;-90
2022/06/27 01:21:56;;;;;;;15.93;5.03;;;20.20;61.80;;;;;;5023071;28;20208;-88
2022/06/27 01:24:26;;;;;;;11.70;4.13;;;20.20;62.10;;;;;;5024563;28;20216;-90
2022/06/27 01:26:55;;;;;;;11.63;3.93;;;20.20;62.00;;;;;;5026500;28;20228;-90
2022/06/27 01:29:23;;;;;;;19.83;7.13;;;20.20;61.70;;;;;;5019604;28;20218;-89
2022/06/27 01:31:50;;;;;;;9.47;3.93;;;20.20;61.50;;;;;;5027298;28;20304;-90
2022/06/27 01:34:18;;;;;;;10.03;3.90;;;20.20;61.50;;;;;;5026249;28;20265;-90
2022/06/27 01:36:46;;;;;;;17.10;5.67;;;20.20;61.60;;;;;;5026768;28;20207;-90
2022/06/27 01:39:16;;;;;;;9.20;3.47;;;20.20;62.00;;;;;;5026093;28;20293;-90
2022/06/27 01:41:47;;;;;;;11.57;4.37;;;20.20;62.40;;;;;;5025527;28;20751;-89
2022/06/27 01:44:15;;;;;;;10.40;4.33;;;20.20;62.50;;;;;;5029668;28;20223;-88
2022/06/27 01:46:48;;;;;;;9.70;3.83;;;20.20;62.30;;;;;;5024333;28;20212;-89
2022/06/27 01:49:19;;;;;;;6.70;3.13;;;20.10;62.60;;;;;;5029782;28;20295;-90
2022/06/27 01:51:48;;;;;;;14.43;5.57;;;20.10;62.50;;;;;;5029914;28;20212;-90
2022/06/27 01:54:19;;;;;;;10.93;3.77;;;20.10;62.20;;;;;;5016665;28;20202;-93
2022/06/27 01:56:50;;;;;;;11.63;4.13;;;20.10;62.40;;;;;;5023928;28;20735;-90
2022/06/27 01:59:21;;;;;;;9.00;4.23;;;20.10;62.70;;;;;;5029482;28;20290;-89
2022/06/27 02:01:49;;;;;;;11.43;4.60;;;20.10;62.70;;;;;;5016957;28;20240;-89
2022/06/27 02:04:17;;;;;;;14.73;5.07;;;20.10;62.80;;;;;;5024592;28;20219;-90
2022/06/27 02:06:48;;;;;;;12.93;5.07;;;20.10;62.90;;;;;;5029808;28;20239;-90
2022/06/27 02:09:16;;;;;;;18.47;6.63;;;20.00;62.90;;;;;;5045019;28;20204;-90
2022/06/27 02:11:46;;;;;;;10.97;4.17;;;20.00;63.00;;;;;;5038947;28;20307;-91
2022/06/27 02:14:14;;;;;;;9.03;3.10;;;20.00;63.10;;;;;;5035256;28;20196;-90
2022/06/27 02:16:43;;;;;;;8.23;3.40;;;20.00;63.20;;;;;;5028594;28;20271;-91
2022/06/27 02:19:12;;;;;;;12.33;4.67;;;19.90;63.00;;;;;;5031428;28;20626;-89
2022/06/27 02:21:43;;;;;;;13.37;4.77;;;19.90;62.80;;;;;;5024483;28;20228;-93
2022/06/27 02:24:11;;;;;;;7.30;3.87;;;19.90;62.80;;;;;;5030524;28;20209;-89
2022/06/27 02:26:39;;;;;;;15.60;5.37;;;19.90;62.80;;;;;;5026014;28;20207;-89
2022/06/27 02:29:09;;;;;;;10.97;4.03;;;19.90;62.80;;;;;;5028561;28;20815;-89
2022/06/27 02:31:47;;;;;;;14.40;5.27;;;19.90;62.80;;;;;;5028391;28;20297;-89
2022/06/27 02:34:15;;;;;;;11.03;4.47;;;19.90;63.30;;;;;;5035551;28;20212;-88
2022/06/27 02:36:42;;;;;;;10.73;4.57;;;19.80;62.90;;;;;;5052786;28;20208;-89
2022/06/27 02:39:13;;;;;;;5.17;2.73;;;19.80;63.00;;;;;;5035491;28;20212;-90
2022/06/27 02:41:41;;;;;;;6.37;3.10;;;19.80;63.50;;;;;;5034173;28;20259;-89
2022/06/27 02:44:11;;;;;;;8.80;4.10;;;19.70;63.70;;;;;;5031017;28;20326;-90
2022/06/27 02:46:42;;;;;;;8.77;3.70;;;19.70;63.90;;;;;;5030594;28;20208;-89
2022/06/27 02:49:10;;;;;;;12.67;4.80;;;19.70;64.10;;;;;;5029074;28;20762;-89
2022/06/27 02:51:43;;;;;;;8.40;4.10;;;19.60;64.10;;;;;;5029824;28;20282;-89
2022/06/27 02:54:15;;;;;;;10.17;4.47;;;19.60;64.80;;;;;;5026962;28;20496;-89
2022/06/27 02:56:48;;;;;;;11.50;4.53;;;19.60;64.70;;;;;;5024247;28;20223;-90
2022/06/27 02:59:22;;;;;;;10.20;4.47;;;19.60;64.90;;;;;;5010309;28;20217;-90
2022/06/27 03:01:50;;;;;;;10.00;4.73;;;19.60;65.30;;;;;;5012728;28;20235;-89
2022/06/27 03:04:17;;;;;;;11.97;4.67;;;19.50;65.20;;;;;;5015575;28;20208;-89
2022/06/27 03:06:46;;;;;;;11.93;4.40;;;19.50;65.20;;;;;;5013120;28;20793;-88
2022/06/27 03:09:13;;;;;;;17.13;7.03;;;19.50;65.20;;;;;;5027080;28;20336;-89
2022/06/27 03:11:40;;;;;;;15.70;6.60;;;19.50;65.20;;;;;;5025356;28;20208;-89
2022/06/27 03:14:08;;;;;;;11.57;5.33;;;19.50;65.20;;;;;;5028641;28;20617;-88
2022/06/27 03:16:36;;;;;;;13.53;6.00;;;19.50;65.30;;;;;;5028609;28;20209;-92
2022/06/27 03:19:08;;;;;;;13.07;5.83;;;19.40;65.40;;;;;;5030370;28;20197;-91
2022/06/27 03:21:35;;;;;;;15.37;6.77;;;19.50;66.10;;;;;;5026475;28;20231;-90
2022/06/27 03:24:02;;;;;;;11.50;5.40;;;19.50;65.50;;;;;;5009240;28;20208;-90
2022/06/27 03:26:30;;;;;;;14.17;6.23;;;19.40;65.20;;;;;;5023362;28;20731;-88
2022/06/27 03:28:58;;;;;;;10.90;5.13;;;19.40;65.70;;;;;;5028808;28;20266;-90
2022/06/27 03:31:25;;;;;;;16.27;7.27;;;19.50;65.60;;;;;;5025761;28;20319;-91
2022/06/27 03:33:52;;;;;;;11.10;4.97;;;19.50;65.60;;;;;;5027456;28;20310;-90
2022/06/27 03:36:21;;;;;;;18.40;6.83;;;19.50;66.00;;;;;;5027280;28;20303;-90
2022/06/27 03:38:51;;;;;;;12.63;5.70;;;19.40;66.40;;;;;;5027804;28;21053;-88
2022/06/27 03:41:18;;;;;;;18.30;6.63;;;19.50;66.50;;;;;;5027106;28;20251;-91
2022/06/27 03:43:45;;;;;;;10.03;5.80;;;19.50;66.60;;;;;;5015294;28;20231;-91
2022/06/27 03:46:12;;;;;;;10.27;5.10;;;19.50;66.70;;;;;;5010022;28;20237;-93
2022/06/27 03:51:26;;;;;;;9.90;5.20;;;19.50;66.50;;;;;;5029738;28;20194;-88
2022/06/27 03:53:53;;;;;;;10.13;5.17;;;19.50;66.80;;;;;;5028202;28;20239;-90
2022/06/27 03:56:22;;;;;;;13.40;6.47;;;19.50;66.80;;;;;;5026706;28;20239;-90
2022/06/27 03:58:49;;;;;;;9.40;4.40;;;19.50;66.80;;;;;;5026811;28;20208;-89
2022/06/27 04:01:16;;;;;;;15.70;6.40;;;19.50;66.60;;;;;;5029011;28;20266;-89
2022/06/27 04:03:48;;;;;;;10.93;5.33;;;19.50;66.30;;;;;;5019651;28;20218;-90
2022/06/27 04:06:16;;;;;;;9.60;4.87;;;19.50;67.50;;;;;;5026436;28;20220;-89
2022/06/27 04:08:44;;;;;;;16.20;6.87;;;19.50;66.50;;;;;;5028152;28;20212;-92
2022/06/27 04:11:11;;;;;;;10.20;5.23;;;19.50;67.00;;;;;;5027123;28;20213;-90
2022/06/27 04:13:39;;;;;;;10.53;5.17;;;19.50;67.00;;;;;;5028913;28;20203;-90
2022/06/27 04:16:08;;;;;;;14.10;6.00;;;19.50;67.20;;;;;;5026067;28;20203;-90
2022/06/27 04:18:35;;;;;;;11.73;5.47;;;19.50;67.70;;;;;;5026789;28;20208;-91
2022/06/27 04:21:04;;;;;;;11.90;5.10;;;19.50;67.80;;;;;;5022474;28;20248;-89
2022/06/27 04:23:34;;;;;;;13.60;5.60;;;19.50;68.10;;;;;;5019816;28;20290;-88
2022/06/27 04:26:02;;;;;;;12.57;5.97;;;19.50;68.10;;;;;;5016882;28;20317;-89
2022/06/27 04:28:29;;;;;;;15.37;6.93;;;19.50;68.40;;;;;;5023402;28;20327;-90
2022/06/27 04:30:56;;;;;;;11.03;5.37;;;19.50;68.10;;;;;;5020791;28;20230;-88
2022/06/27 04:33:23;;;;;;;18.90;7.37;;;19.50;68.10;;;;;;5026404;28;20295;-88
2022/06/27 04:35:50;;;;;;;10.10;5.17;;;19.50;68.10;;;;;;5027667;28;20207;-88
2022/06/27 04:38:20;;;;;;;14.30;6.20;;;19.60;68.20;;;;;;5026456;28;20208;-89
2022/06/27 04:40:47;;;;;;;13.17;5.73;;;19.60;68.20;;;;;;5026967;28;20222;-89
2022/06/27 04:43:16;;;;;;;13.60;6.00;;;19.60;68.20;;;;;;5027570;28;20295;-91
2022/06/27 04:45:43;;;;;;;14.53;6.43;;;19.60;68.40;;;;;;5025182;28;20699;-89
2022/06/27 04:48:11;;;;;;;12.47;5.73;;;19.70;68.30;;;;;;5023523;28;20208;-88
2022/06/27 04:50:38;;;;;;;15.77;6.57;;;19.70;68.40;;;;;;5027604;28;20810;-89
2022/06/27 04:53:06;;;;;;;12.70;5.63;;;19.70;68.40;;;;;;5026255;28;20228;-89
2022/06/27 04:55:33;;;;;;;10.77;5.53;;;19.80;68.60;;;;;;5017964;28;20668;-90
2022/06/27 04:58:00;;;;;;;9.93;5.47;;;19.80;68.60;;;;;;5015628;28;20240;-89
2022/06/27 05:00:32;;;;;;;10.43;5.07;;;19.80;68.50;;;;;;5027720;28;20203;-90
2022/06/27 05:03:02;;;;;;;11.40;6.20;;;19.80;68.60;;;;;;5022026;28;20326;-89
2022/06/27 05:05:29;;;;;;;13.00;6.40;;;19.90;68.60;;;;;;5027307;28;20235;-88
2022/06/27 05:07:57;;;;;;;15.60;5.70;;;19.90;68.70;;;;;;5030310;28;20737;-88
2022/06/27 05:10:24;;;;;;;24.73;9.40;;;19.90;68.60;;;;;;5027662;28;20203;-89
2022/06/27 05:12:51;;;;;;;12.60;6.00;;;20.00;68.90;;;;;;5026852;28;20216;-89
2022/06/27 05:15:18;;;;;;;14.10;5.57;;;20.00;68.90;;;;;;5027086;28;20236;-89
2022/06/27 05:17:46;;;;;;;14.43;6.47;;;20.00;68.80;;;;;;5024257;28;20208;-90
2022/06/27 05:20:14;;;;;;;11.37;5.53;;;20.10;69.00;;;;;;5012588;28;20206;-93
2022/06/27 05:22:42;;;;;;;16.23;6.13;;;20.20;69.00;;;;;;5026955;28;20220;-90
2022/06/27 05:25:10;;;;;;;8.17;4.80;;;20.20;69.10;;;;;;5029228;28;20197;-91
2022/06/27 05:27:38;;;;;;;10.97;5.30;;;20.20;69.00;;;;;;5033542;28;20210;-90
2022/06/27 05:30:06;;;;;;;10.50;5.53;;;20.30;68.90;;;;;;5031897;28;20210;-91
2022/06/27 05:32:33;;;;;;;10.37;4.93;;;20.30;68.90;;;;;;5031130;28;20205;-91
2022/06/27 05:35:02;;;;;;;10.60;5.70;;;20.40;69.00;;;;;;5029851;28;20263;-89
2022/06/27 05:37:29;;;;;;;11.80;5.53;;;20.40;68.90;;;;;;5030257;28;20287;-88
2022/06/27 05:39:59;;;;;;;11.20;5.43;;;20.50;68.50;;;;;;5030036;28;20272;-91
2022/06/27 05:42:26;;;;;;;12.03;5.83;;;20.50;68.50;;;;;;5031307;28;20286;-89
2022/06/27 05:44:54;;;;;;;12.83;6.37;;;20.50;68.50;;;;;;5027431;28;20218;-89
2022/06/27 05:47:21;;;;;;;13.30;6.00;;;20.60;68.50;;;;;;5031675;28;20201;-88
2022/06/27 05:49:48;;;;;;;13.50;6.03;;;20.60;68.40;;;;;;5031860;28;20208;-89
2022/06/27 05:52:17;;;;;;;14.60;6.90;;;20.60;68.40;;;;;;5031971;28;20205;-88
2022/06/27 05:54:44;;;;;;;9.70;5.47;;;20.70;68.50;;;;;;5029101;28;20295;-91
2022/06/27 05:57:12;;;;;;;12.13;6.10;;;20.70;68.40;;;;;;5031926;28;20263;-89
2022/06/27 05:59:39;;;;;;;12.50;5.77;;;20.70;68.30;;;;;;5021428;28;20206;-89
2022/06/27 06:02:12;;;;;;;12.97;6.37;;;20.70;68.10;;;;;;5014637;28;20235;-89
2022/06/27 06:04:39;;;;;;;13.30;6.50;;;20.70;68.20;;;;;;5028249;28;20310;-88
2022/06/27 06:07:08;;;;;;;9.67;5.60;;;20.70;68.00;;;;;;5035737;28;20294;-92
2022/06/27 06:09:37;;;;;;;12.10;5.77;;;20.80;68.20;;;;;;5040134;28;20208;-87
2022/06/27 06:12:06;;;;;;;10.80;5.60;;;20.80;68.30;;;;;;5034597;28;20722;-89
2022/06/27 06:14:33;;;;;;;10.80;5.77;;;20.80;68.30;;;;;;5036933;28;20307;-88
2022/06/27 06:17:00;;;;;;;8.73;4.63;;;20.80;68.50;;;;;;5037258;28;20715;-90
2022/06/27 06:19:28;;;;;;;17.73;7.53;;;20.80;68.50;;;;;;5031170;28;20568;-89
2022/06/27 06:21:55;;;;;;;13.33;6.03;;;20.80;68.60;;;;;;5030529;28;20649;-89
2022/06/27 06:24:24;;;;;;;11.33;6.20;;;20.90;68.60;;;;;;5029072;28;20209;-88
2022/06/27 06:26:53;;;;;;;10.87;5.63;;;20.90;68.60;;;;;;5029922;28;20291;-88
2022/06/27 06:29:21;;;;;;;12.57;5.73;;;21.00;68.70;;;;;;5029127;28;20212;-88
2022/06/27 06:31:50;;;;;;;14.07;7.10;;;20.90;68.60;;;;;;5028059;28;20205;-88
2022/06/27 06:34:17;;;;;;;14.00;6.50;;;21.00;68.70;;;;;;5029532;28;20647;-89
2022/06/27 06:36:45;;;;;;;13.67;6.40;;;21.00;68.60;;;;;;5028127;28;20247;-88
2022/06/27 06:39:13;;;;;;;12.10;6.07;;;21.10;68.80;;;;;;5013960;28;20305;-90
2022/06/27 06:41:40;;;;;;;11.87;5.83;;;21.10;68.60;;;;;;5009885;28;20340;-89
2022/06/27 06:44:10;;;;;;;10.73;6.10;;;21.10;68.70;;;;;;5010531;28;20242;-89
2022/06/27 06:46:38;;;;;;;11.67;6.13;;;21.20;69.00;;;;;;5010412;28;20208;-90
2022/06/27 06:49:06;;;;;;;12.93;6.00;;;21.20;68.70;;;;;;5010852;28;20901;-90
2022/06/27 06:51:37;;;;;;;12.10;6.03;;;21.20;68.40;;;;;;5009820;28;20221;-90
2022/06/27 06:54:05;;;;;;;12.27;5.27;;;21.30;68.40;;;;;;5011231;28;20213;-91
2022/06/27 06:56:34;;;;;;;11.40;5.73;;;21.30;68.10;;;;;;5010970;28;20347;-91
2022/06/27 06:59:09;;;;;;;11.43;4.97;;;21.30;67.90;;;;;;5029011;28;20219;-91
2022/06/27 07:01:39;;;;;;;16.13;7.50;;;21.40;67.80;;;;;;5035238;28;20232;-90
2022/06/27 07:04:08;;;;;;;15.37;7.07;;;21.40;67.80;;;;;;5033492;28;20239;-89
2022/06/27 07:06:38;;;;;;;11.73;5.87;;;21.40;67.60;;;;;;5035392;28;20205;-90
2022/06/27 07:09:07;;;;;;;12.70;5.93;;;21.50;67.40;;;;;;5035094;28;20209;-90
2022/06/27 07:11:37;;;;;;;15.00;6.50;;;21.50;67.40;;;;;;5016331;28;20219;-89
2022/06/27 07:14:07;;;;;;;10.07;5.43;;;21.60;67.50;;;;;;5017345;28;20267;-88
2022/06/27 07:16:35;;;;;;;19.50;7.67;;;21.60;67.50;;;;;;5027231;28;20575;-89
2022/06/27 07:19:03;;;;;;;10.23;4.80;;;21.60;67.50;;;;;;5039551;28;20201;-89
2022/06/27 07:21:34;;;;;;;10.90;4.80;;;21.70;67.60;;;;;;5039818;28;20193;-89
2022/06/27 07:24:05;;;;;;;14.13;6.63;;;21.70;67.60;;;;;;5033689;28;20271;-89
2022/06/27 07:26:33;;;;;;;14.57;6.47;;;21.80;67.40;;;;;;5033253;28;20272;-89
2022/06/27 07:29:04;;;;;;;10.17;4.67;;;21.90;67.30;;;;;;5035880;28;20266;-90
2022/06/27 07:31:32;;;;;;;15.53;6.37;;;21.90;67.20;;;;;;5038369;28;20663;-89
2022/06/27 07:34:02;;;;;;;15.87;6.53;;;22.00;67.10;;;;;;5042429;28;20220;-89
2022/06/27 07:36:29;;;;;;;9.30;4.87;;;22.00;67.10;;;;;;5038364;28;20549;-88
2022/06/27 07:38:58;;;;;;;12.07;5.90;;;22.00;66.90;;;;;;5032934;28;20642;-89
2022/06/27 07:41:26;;;;;;;13.60;5.17;;;22.10;67.20;;;;;;5034502;28;20731;-89
2022/06/27 07:43:55;;;;;;;8.53;4.20;;;22.20;67.20;;;;;;5030438;28;20235;-87
2022/06/27 07:46:22;;;;;;;14.47;6.63;;;22.20;66.80;;;;;;5028106;28;20205;-87
2022/06/27 07:48:50;;;;;;;13.17;5.33;;;22.20;66.60;;;;;;5027334;28;20256;-87
2022/06/27 07:51:20;;;;;;;10.93;5.50;;;22.30;66.60;;;;;;5019659;28;20204;-87
2022/06/27 07:53:50;;;;;;;11.17;5.40;;;22.30;66.20;;;;;;5026769;28;20312;-87
2022/06/27 07:56:20;;;;;;;11.07;5.40;;;22.50;66.60;;;;;;5025892;28;20681;-88
2022/06/27 07:58:48;;;;;;;10.57;5.27;;;22.50;66.80;;;;;;5027217;28;20212;-87
2022/06/27 08:01:18;;;;;;;11.73;6.20;;;22.50;66.20;;;;;;5027868;28;20193;-87
2022/06/27 08:03:47;;;;;;;12.27;6.70;;;22.60;66.20;;;;;;5027420;28;20232;-89
2022/06/27 08:06:17;;;;;;;10.07;5.07;;;22.70;65.80;;;;;;5027858;28;20214;-88
2022/06/27 08:08:46;;;;;;;14.23;6.17;;;22.70;65.80;;;;;;5027614;28;20291;-87
2022/06/27 08:11:16;;;;;;;15.40;7.30;;;22.80;65.80;;;;;;5018280;28;20258;-87
2022/06/27 08:13:45;;;;;;;15.67;6.30;;;22.90;65.60;;;;;;5026566;28;20209;-87
2022/06/27 08:16:14;;;;;;;11.97;5.63;;;22.90;65.60;;;;;;5028410;28;20207;-87
2022/06/27 08:18:41;;;;;;;12.97;6.50;;;23.00;65.50;;;;;;5028653;28;20210;-88
2022/06/27 08:21:10;;;;;;;14.17;6.90;;;23.00;65.70;;;;;;5026574;28;20706;-89
2022/06/27 08:23:38;;;;;;;11.70;6.30;;;23.10;65.70;;;;;;5008571;28;20241;-89
2022/06/27 08:26:07;;;;;;;15.43;7.17;;;23.10;65.50;;;;;;5008329;28;20665;-87
2022/06/27 08:28:35;;;;;;;13.30;6.70;;;23.20;65.90;;;;;;5027211;28;20204;-88
2022/06/27 08:31:05;;;;;;;14.93;6.90;;;23.30;65.70;;;;;;5025407;28;20278;-88
2022/06/27 08:33:32;;;;;;;12.13;6.30;;;23.40;65.80;;;;;;5020054;28;20283;-88
2022/06/27 08:36:01;;;;;;;10.70;6.00;;;23.40;65.60;;;;;;5027077;28;20207;-88
2022/06/27 08:38:28;;;;;;;13.23;6.43;;;23.50;65.80;;;;;;5027343;28;20931;-90
2022/06/27 08:40:56;;;;;;;12.63;5.93;;;23.60;65.80;;;;;;5027058;28;20204;-87
2022/06/27 08:43:28;;;;;;;11.27;5.50;;;23.60;65.80;;;;;;5027528;28;20662;-86
2022/06/27 08:45:55;;;;;;;14.97;6.70;;;23.70;65.90;;;;;;5026553;28;20202;-87
2022/06/27 08:48:22;;;;;;;10.47;6.30;;;23.80;66.10;;;;;;5027142;28;20236;-88
2022/06/27 08:50:52;;;;;;;12.13;6.33;;;23.90;66.10;;;;;;5028077;28;20684;-87
2022/06/27 08:53:19;;;;;;;13.63;6.67;;;24.00;66.60;;;;;;5021364;28;20212;-89
2022/06/27 08:55:48;;;;;;;13.50;7.27;;;24.00;66.30;;;;;;5007253;28;20922;-87
2022/06/27 08:58:16;;;;;;;15.07;6.97;;;24.10;66.10;;;;;;5011270;28;20205;-87
2022/06/27 09:00:46;;;;;;;12.37;5.33;;;24.20;66.00;;;;;;5023608;28;20208;-87
2022/06/27 09:03:18;;;;;;;16.60;4.47;;;24.30;65.70;;;;;;5027097;28;20270;-87
2022/06/27 09:05:57;;;;;;;17.43;4.30;;;24.30;64.90;;;;;;5026095;28;20246;-86
2022/06/27 09:08:25;;;;;;;10.77;3.50;;;24.30;63.70;;;;;;5026115;28;20671;-88
2022/06/27 09:10:53;;;;;;;10.03;3.73;;;24.30;63.70;;;;;;5027244;28;20196;-88
2022/06/27 09:13:20;;;;;;;10.63;4.07;;;24.30;62.70;;;;;;5031083;28;20193;-87
2022/06/27 09:15:53;;;;;;;10.47;4.17;;;24.30;62.50;;;;;;5034789;28;20224;-90
2022/06/27 09:18:23;;;;;;;7.30;3.13;;;24.20;61.60;;;;;;5030777;28;20311;-87
2022/06/27 09:20:55;;;;;;;8.97;2.63;;;24.20;61.50;;;;;;5029092;28;20208;-88
2022/06/27 09:23:35;;;;;;;12.43;4.30;;;24.10;61.00;;;;;;5028114;28;20817;-88
2022/06/27 09:26:04;;;;;;;7.17;2.63;;;24.10;60.50;;;;;;5020636;28;20207;-89
2022/06/27 09:28:48;;;;;;;9.63;3.33;;;24.00;60.50;;;;;;5026118;28;20206;-88
2022/06/27 09:31:32;;;;;;;5.90;2.57;;;24.00;60.00;;;;;;5007823;28;20237;-86
2022/06/27 09:34:12;;;;;;;9.17;3.60;;;23.90;59.60;;;;;;5012818;28;20245;-87
2022/06/27 09:36:42;;;;;;;8.03;2.73;;;23.80;59.60;;;;;;5009790;28;20290;-89
2022/06/27 09:39:21;;;;;;;9.73;2.80;;;23.80;60.00;;;;;;5030914;28;20267;-88
2022/06/27 09:42:01;;;;;;;9.70;3.80;;;23.80;59.80;;;;;;5045522;28;20232;-88
2022/06/27 09:44:30;;;;;;;8.33;2.83;;;23.80;59.60;;;;;;5035419;28;20220;-88
2022/06/27 09:47:05;;;;;;;8.23;3.17;;;23.70;59.00;;;;;;5028054;28;20210;-89
2022/06/27 09:49:34;;;;;;;8.10;2.83;;;23.60;58.70;;;;;;5027129;28;20203;-87
2022/06/27 09:52:06;;;;;;;4.93;1.97;;;23.60;59.50;;;;;;5019237;28;20293;-89
2022/06/27 09:54:34;;;;;;;6.63;3.13;;;23.60;59.40;;;;;;5022932;28;20201;-88
2022/06/27 09:57:01;;;;;;;9.10;3.47;;;23.70;59.70;;;;;;5026541;28;20632;-87
2022/06/27 09:59:30;;;;;;;13.83;4.67;;;23.70;59.30;;;;;;5025253;28;20202;-88
2022/06/27 10:01:58;;;;;;;9.13;3.40;;;23.80;59.30;;;;;;5022968;28;20678;-87
2022/06/27 10:04:28;;;;;;;19.73;6.17;;;23.80;58.70;;;;;;5025041;28;20258;-89
2022/06/27 10:06:59;;;;;;;8.87;3.53;;;24.00;58.30;;;;;;5030428;28;20204;-88
2022/06/27 10:09:29;;;;;;;13.67;5.37;;;24.00;58.90;;;;;;5028796;28;20208;-87
2022/06/27 10:12:23;;;;;;;8.23;2.93;;;24.10;58.80;;;;;;5028614;28;20239;-88
2022/06/27 10:15:25;;;;;;;9.23;3.40;;;24.20;57.10;;;;;;5028529;28;20207;-87
2022/06/27 10:17:56;;;;;;;6.43;2.77;;;24.30;57.30;;;;;;4995824;28;20227;-87
2022/06/27 10:20:34;;;;;;;9.73;3.10;;;24.30;57.60;;;;;;5024650;28;20763;-87
2022/06/27 10:23:27;;;;;;;10.83;3.50;;;24.40;56.20;;;;;;5018990;28;20231;-89
2022/06/27 10:25:57;;;;;;;8.10;3.23;;;24.40;55.10;;;;;;5019939;28;20231;-88
2022/06/27 10:28:24;;;;;;;11.73;4.00;;;24.40;55.70;;;;;;5010984;28;20264;-88
2022/06/27 10:30:56;;;;;;;8.63;3.07;;;24.40;55.00;;;;;;5018532;28;20204;-90
2022/06/27 10:33:39;;;;;;;9.73;4.63;;;24.30;54.00;;;;;;5018897;28;20735;-91
2022/06/27 10:36:15;;;;;;;7.23;3.20;;;24.20;52.70;;;;;;5025746;28;20618;-91
2022/06/27 10:38:50;;;;;;;7.30;2.67;;;24.20;54.30;;;;;;5029122;28;20290;-88
2022/06/27 10:41:39;;;;;;;8.47;3.00;;;24.10;54.40;;;;;;5029228;28;20728;-90
2022/06/27 10:44:32;;;;;;;10.20;3.63;;;24.10;54.50;;;;;;5029444;28;20217;-87
2022/06/27 10:47:00;;;;;;;9.37;3.63;;;24.10;54.50;;;;;;5029020;28;20671;-88
2022/06/27 10:49:31;;;;;;;9.23;3.60;;;24.00;55.40;;;;;;5029627;28;20757;-87
2022/06/27 10:52:29;;;;;;;7.97;3.03;;;24.00;55.20;;;;;;5025099;28;20204;-88
2022/06/27 10:54:56;;;;;;;12.27;4.47;;;23.90;55.40;;;;;;5022032;28;20235;-87
2022/06/27 10:57:46;;;;;;;9.20;3.43;;;23.90;56.10;;;;;;5029685;28;20230;-86
2022/06/27 11:00:38;;;;;;;5.97;2.43;;;23.80;56.10;;;;;;5027674;28;20282;-89
2022/06/27 11:03:05;;;;;;;8.90;3.60;;;23.70;56.40;;;;;;5017516;28;20711;-88
2022/06/27 11:05:52;;;;;;;16.03;5.93;;;23.70;57.10;;;;;;5026252;28;20250;-89
2022/06/27 11:08:22;;;;;;;7.90;3.13;;;23.50;57.80;;;;;;5027187;28;20209;-88
2022/06/27 11:10:52;;;;;;;6.33;2.73;;;23.50;58.30;;;;;;5008830;28;20208;-88
2022/06/27 11:13:37;;;;;;;7.07;3.03;;;23.40;58.40;;;;;;5019735;28;20662;-87
2022/06/27 11:16:06;;;;;;;11.83;4.00;;;23.30;58.30;;;;;;5018554;28;20245;-88
2022/06/27 11:18:45;;;;;;;9.93;3.87;;;23.10;58.10;;;;;;5027321;28;20210;-89
2022/06/27 11:21:14;;;;;;;8.53;3.30;;;22.90;58.10;;;;;;5029386;28;20244;-88
2022/06/27 11:23:57;;;;;;;10.00;3.80;;;22.80;58.40;;;;;;5028061;28;20286;-89
2022/06/27 11:26:27;;;;;;;12.30;3.67;;;22.70;58.60;;;;;;5022868;28;20753;-89
2022/06/27 11:34:25;;;;;;;13.20;4.93;;;22.20;58.90;;;;;;5013875;28;20236;-87
2022/06/27 11:36:52;;;;;;;12.73;4.70;;;22.00;58.90;;;;;;5018304;28;20211;-86
2022/06/27 11:39:25;;;;;;;9.20;3.57;;;22.00;59.30;;;;;;5009515;28;20591;-87
2022/06/27 11:41:59;;;;;;;10.73;4.60;;;21.90;59.70;;;;;;5017435;28;20228;-88
2022/06/27 11:44:27;;;;;;;11.30;3.93;;;21.80;59.80;;;;;;5024451;28;20228;-87
2022/06/27 11:47:03;;;;;;;14.37;5.00;;;21.70;59.60;;;;;;5024167;28;20208;-87
2022/06/27 11:49:32;;;;;;;12.33;4.83;;;21.70;59.80;;;;;;5021113;28;20278;-87
2022/06/27 11:52:04;;;;;;;6.73;2.73;;;21.60;59.70;;;;;;5027544;28;20205;-87
2022/06/27 11:54:40;;;;;;;15.50;4.47;;;21.60;59.90;;;;;;5016692;28;20832;-88
2022/06/27 11:57:22;;;;;;;12.00;3.93;;;21.50;60.50;;;;;;5025990;28;20294;-88
2022/06/27 11:59:50;;;;;;;11.33;4.13;;;21.50;60.70;;;;;;5017707;28;20208;-89
2022/06/27 12:02:34;;;;;;;16.60;5.17;;;21.50;60.20;;;;;;5023322;28;20205;-88
2022/06/27 12:05:09;;;;;;;13.77;4.53;;;21.50;60.50;;;;;;5023432;28;20347;-88
2022/06/27 12:07:56;;;;;;;9.07;3.33;;;21.50;60.40;;;;;;5027361;28;20208;-88
2022/06/27 12:10:44;;;;;;;12.20;3.97;;;21.50;60.30;;;;;;5023864;28;20581;-88
2022/06/27 12:13:13;;;;;;;8.53;3.23;;;21.50;60.50;;;;;;5021102;28;20197;-87
2022/06/27 12:15:42;;;;;;;9.13;3.40;;;21.50;60.50;;;;;;5022640;28;20213;-88
2022/06/27 12:18:13;;;;;;;9.07;2.80;;;21.50;61.80;;;;;;5023168;28;20223;-91
2022/06/27 12:20:43;;;;;;;9.03;3.30;;;21.50;62.20;;;;;;5028664;28;20727;-87
2022/06/27 12:23:10;;;;;;;12.07;3.90;;;21.50;62.20;;;;;;5025107;28;20208;-88
2022/06/27 12:25:37;;;;;;;9.70;3.13;;;21.50;61.60;;;;;;5009151;28;20241;-87
2022/06/27 12:28:09;;;;;;;9.53;3.50;;;21.60;62.20;;;;;;5010725;28;20284;-88
2022/06/27 12:30:36;;;;;;;8.50;3.27;;;21.60;63.10;;;;;;5029234;28;20205;-87
2022/06/27 12:33:05;;;;;;;9.03;3.13;;;21.60;62.60;;;;;;5028871;28;20685;-88
2022/06/27 12:35:32;;;;;;;7.93;3.07;;;21.60;62.80;;;;;;5028301;28;20205;-87
2022/06/27 12:38:00;;;;;;;7.50;2.80;;;21.60;62.00;;;;;;5028809;28;20655;-88
2022/06/27 12:40:28;;;;;;;12.00;3.60;;;21.70;62.40;;;;;;5031068;28;20232;-88
2022/06/27 12:42:55;;;;;;;6.47;2.60;;;21.80;62.10;;;;;;5028507;28;20299;-88
2022/06/27 12:45:23;;;;;;;11.20;4.13;;;21.90;63.20;;;;;;5027640;28;20224;-87
2022/06/27 12:47:54;;;;;;;12.37;4.70;;;22.10;62.50;;;;;;5036910;28;20227;-87
2022/06/27 12:50:21;;;;;;;15.67;5.60;;;22.20;62.00;;;;;;5021291;28;20718;-88
2022/06/27 12:52:51;;;;;;;5.70;2.53;;;22.40;62.00;;;;;;5037436;28;20229;-89
2022/06/27 12:55:20;;;;;;;5.37;2.20;;;22.60;60.90;;;;;;5014503;28;20199;-88
2022/06/27 12:57:48;;;;;;;11.23;3.50;;;22.80;60.70;;;;;;5026955;28;20204;-88
2022/06/27 13:00:18;;;;;;;6.83;2.70;;;23.00;60.00;;;;;;5027449;28;20203;-90
2022/06/27 13:02:47;;;;;;;6.90;2.90;;;23.20;59.10;;;;;;5026785;28;20263;-89